Time;durP1;ratioP1;P1;durP2;ratioP2;P2;SDS_P1;SDS_P2;PMS_P1;PMS_P2;Temp;Humidity;BMP_temperature;BMP_pressure;BME280_temperature;BME280_humidity;BME280_pressure;Samples;Min_cycle;Max_cycle;Signal;HPM_P1;HPM_P2
2021/07/29 00:00:15;;;;;;;3.78;1.88;;;;;;;;;;5072623;28;20017;-41
2021/07/29 00:02:41;;;;;;;4.38;2.00;;;;;;;;;;5072734;28;20024;-41
2021/07/29 00:05:06;;;;;;;5.35;2.13;;;;;;;;;;5072217;28;20478;-41
2021/07/29 00:07:32;;;;;;;6.28;1.92;;;;;;;;;;5088080;28;20025;-41
2021/07/29 00:09:57;;;;;;;2.60;2.17;;;;;;;;;;5072389;28;20025;-42
2021/07/29 00:12:22;;;;;;;2.53;2.00;;;;;;;;;;5072269;28;20024;-42
2021/07/29 00:14:50;;;;;;;6.95;2.03;;;;;;;;;;5072338;28;20027;-41
2021/07/29 00:20:02;;;;;;;5.03;2.15;;;;;;;;;;5040991;28;20094;-41
2021/07/29 00:22:27;;;;;;;5.57;2.20;;;;;;;;;;5072170;28;20105;-41
2021/07/29 00:24:52;;;;;;;4.50;1.90;;;;;;;;;;5072233;28;20033;-41
2021/07/29 00:27:18;;;;;;;5.63;1.98;;;;;;;;;;5072259;28;20020;-41
2021/07/29 00:29:43;;;;;;;3.97;1.92;;;;;;;;;;5072147;28;20633;-41
2021/07/29 00:32:09;;;;;;;4.32;2.85;;;;;;;;;;5072200;28;20437;-42
2021/07/29 00:34:34;;;;;;;5.22;2.35;;;;;;;;;;5072152;28;20043;-41
2021/07/29 00:37:00;;;;;;;5.30;2.20;;;;;;;;;;5072101;28;20016;-41
2021/07/29 00:39:25;;;;;;;4.15;2.78;;;;;;;;;;5072082;28;20052;-41
2021/07/29 00:41:51;;;;;;;7.70;2.22;;;;;;;;;;5071972;28;20478;-41
2021/07/29 00:44:16;;;;;;;4.82;2.42;;;;;;;;;;5072127;28;20052;-41
2021/07/29 00:46:41;;;;;;;4.97;2.10;;;;;;;;;;5070660;28;20017;-41
2021/07/29 00:49:08;;;;;;;5.32;2.45;;;;;;;;;;5072165;28;20078;-41
2021/07/29 00:51:34;;;;;;;5.93;2.10;;;;;;;;;;5072024;28;20100;-42
2021/07/29 00:54:00;;;;;;;8.07;2.83;;;;;;;;;;5070433;28;20057;-41
2021/07/29 00:56:26;;;;;;;4.18;2.17;;;;;;;;;;5071818;28;20063;-41
2021/07/29 00:58:51;;;;;;;7.57;2.30;;;;;;;;;;5072238;28;20052;-41
2021/07/29 01:01:16;;;;;;;5.38;2.88;;;;;;;;;;5070641;28;20484;-41
2021/07/29 01:03:42;;;;;;;2.97;2.13;;;;;;;;;;5073434;28;20037;-41
2021/07/29 01:06:07;;;;;;;9.10;2.65;;;;;;;;;;5075625;28;20091;-42
2021/07/29 01:08:53;;;;;;;5.40;2.00;;;;;;;;;;5075649;28;20046;-42
2021/07/29 01:11:18;;;;;;;4.07;2.40;;;;;;;;;;5075526;28;20459;-41
2021/07/29 01:13:43;;;;;;;1.90;1.67;;;;;;;;;;5075793;28;20033;-41
2021/07/29 01:16:09;;;;;;;3.42;2.28;;;;;;;;;;5075547;28;20540;-42
2021/07/29 01:18:34;;;;;;;6.72;2.65;;;;;;;;;;5074075;28;20031;-41
2021/07/29 01:20:59;;;;;;;5.70;2.90;;;;;;;;;;5075724;28;20032;-42
2021/07/29 01:23:25;;;;;;;3.72;2.15;;;;;;;;;;5073973;28;20020;-41
2021/07/29 01:25:50;;;;;;;4.65;2.50;;;;;;;;;;5075386;28;20113;-42
2021/07/29 01:28:16;;;;;;;2.72;2.17;;;;;;;;;;5075339;28;20051;-41
2021/07/29 01:30:41;;;;;;;5.07;2.40;;;;;;;;;;5075374;28;20029;-41
2021/07/29 01:33:06;;;;;;;12.25;2.75;;;;;;;;;;5075147;28;20143;-42
2021/07/29 01:35:32;;;;;;;4.50;2.63;;;;;;;;;;5090698;28;20115;-41
2021/07/29 01:37:57;;;;;;;5.40;2.83;;;;;;;;;;5075086;28;20013;-42
2021/07/29 01:40:23;;;;;;;5.47;2.45;;;;;;;;;;5075370;28;20383;-41
2021/07/29 01:42:48;;;;;;;4.95;2.38;;;;;;;;;;5075341;28;20017;-42
2021/07/29 01:45:13;;;;;;;4.35;2.22;;;;;;;;;;5074961;28;20039;-41
2021/07/29 01:47:39;;;;;;;2.90;2.50;;;;;;;;;;5074946;28;20027;-42
2021/07/29 01:50:04;;;;;;;3.17;2.25;;;;;;;;;;5074889;28;20037;-41
2021/07/29 01:52:29;;;;;;;4.72;1.98;;;;;;;;;;5074635;28;20032;-42
2021/07/29 01:54:55;;;;;;;2.58;2.35;;;;;;;;;;5074952;28;20045;-42
2021/07/29 01:57:22;;;;;;;5.47;2.40;;;;;;;;;;5074782;28;20075;-41
2021/07/29 01:59:47;;;;;;;2.58;2.33;;;;;;;;;;5074695;28;20032;-42
2021/07/29 02:02:13;;;;;;;3.50;2.38;;;;;;;;;;5074698;28;20031;-41
2021/07/29 02:04:38;;;;;;;3.45;2.38;;;;;;;;;;5074460;28;20032;-41
2021/07/29 02:07:03;;;;;;;6.55;2.55;;;;;;;;;;5074941;28;20027;-42
2021/07/29 02:09:29;;;;;;;5.65;2.78;;;;;;;;;;5074692;28;20474;-41
2021/07/29 02:11:54;;;;;;;3.47;2.40;;;;;;;;;;5074622;28;20016;-41
2021/07/29 02:14:21;;;;;;;3.75;2.20;;;;;;;;;;5073563;28;20040;-41
2021/07/29 02:16:47;;;;;;;4.65;2.78;;;;;;;;;;5074288;28;20065;-42
2021/07/29 02:19:12;;;;;;;3.15;1.88;;;;;;;;;;5074477;28;20479;-42
2021/07/29 02:21:37;;;;;;;4.15;1.80;;;;;;;;;;5074440;28;20017;-41
2021/07/29 02:24:03;;;;;;;5.13;2.88;;;;;;;;;;5074331;28;20532;-41
2021/07/29 02:26:28;;;;;;;5.07;2.22;;;;;;;;;;5074145;28;20024;-42
2021/07/29 02:28:54;;;;;;;5.95;2.40;;;;;;;;;;5074665;28;20421;-42
2021/07/29 02:31:19;;;;;;;5.05;2.40;;;;;;;;;;5074260;28;20021;-41
2021/07/29 02:33:44;;;;;;;5.78;2.72;;;;;;;;;;5073834;28;20057;-41
2021/07/29 02:36:10;;;;;;;4.18;2.88;;;;;;;;;;5074357;28;20482;-41
2021/07/29 02:38:35;;;;;;;5.55;1.90;;;;;;;;;;5073982;28;20033;-41
2021/07/29 02:41:01;;;;;;;4.68;2.60;;;;;;;;;;5073924;28;20074;-42
2021/07/29 02:43:26;;;;;;;4.85;2.30;;;;;;;;;;5073828;28;20032;-42
2021/07/29 02:45:51;;;;;;;3.28;2.15;;;;;;;;;;5073825;28;20027;-42
2021/07/29 02:48:17;;;;;;;4.55;2.55;;;;;;;;;;5074141;28;20037;-41
2021/07/29 02:50:42;;;;;;;5.82;2.83;;;;;;;;;;5073766;28;20032;-42
2021/07/29 02:53:07;;;;;;;6.45;2.17;;;;;;;;;;5073541;28;20079;-42
2021/07/29 02:55:33;;;;;;;3.13;2.50;;;;;;;;;;5073622;28;20379;-41
2021/07/29 02:57:58;;;;;;;5.57;2.20;;;;;;;;;;5073900;28;20028;-41
2021/07/29 03:00:23;;;;;;;4.88;2.53;;;;;;;;;;5073548;28;20458;-41
2021/07/29 03:02:49;;;;;;;8.23;2.90;;;;;;;;;;5073499;28;20033;-41
2021/07/29 03:05:14;;;;;;;4.50;2.47;;;;;;;;;;5073325;28;20013;-41
2021/07/29 03:07:40;;;;;;;7.50;2.67;;;;;;;;;;5073731;28;20153;-41
2021/07/29 03:10:05;;;;;;;5.40;2.33;;;;;;;;;;5073361;28;20371;-42
2021/07/29 03:12:31;;;;;;;7.63;4.13;;;;;;;;;;5073483;28;20521;-41
2021/07/29 03:14:56;;;;;;;3.28;2.40;;;;;;;;;;5073210;28;20115;-42
2021/07/29 03:17:22;;;;;;;9.18;2.47;;;;;;;;;;5073120;28;20028;-42
2021/07/29 03:19:47;;;;;;;11.50;2.83;;;;;;;;;;5073102;28;20021;-41
2021/07/29 03:22:12;;;;;;;4.00;2.60;;;;;;;;;;5073231;28;20069;-41
2021/07/29 03:24:38;;;;;;;3.35;2.55;;;;;;;;;;5072954;28;20522;-42
2021/07/29 03:27:03;;;;;;;5.32;2.55;;;;;;;;;;5072825;28;20024;-41
2021/07/29 03:29:29;;;;;;;3.03;2.25;;;;;;;;;;5072921;28;20061;-41
2021/07/29 03:31:54;;;;;;;4.00;2.75;;;;;;;;;;5072974;28;20071;-42
2021/07/29 03:34:20;;;;;;;5.47;2.50;;;;;;;;;;5072857;28;20024;-41
2021/07/29 03:36:46;;;;;;;3.50;2.33;;;;;;;;;;5073026;28;20035;-42
2021/07/29 03:39:12;;;;;;;4.28;1.75;;;;;;;;;;5072810;28;20107;-42
2021/07/29 03:41:37;;;;;;;5.50;2.45;;;;;;;;;;5088386;28;20438;-42
2021/07/29 03:44:03;;;;;;;4.60;2.50;;;;;;;;;;5072809;28;20021;-42
2021/07/29 03:46:28;;;;;;;3.85;2.25;;;;;;;;;;5072608;28;20471;-41
2021/07/29 03:48:55;;;;;;;2.22;2.03;;;;;;;;;;5072943;28;20024;-42
2021/07/29 03:51:20;;;;;;;3.55;2.10;;;;;;;;;;5072974;28;20029;-41
2021/07/29 03:53:46;;;;;;;9.30;2.40;;;;;;;;;;5072239;28;20456;-42
2021/07/29 03:56:11;;;;;;;3.45;2.20;;;;;;;;;;5071309;28;20035;-42
2021/07/29 03:58:36;;;;;;;3.20;2.38;;;;;;;;;;5072551;28;20020;-41
2021/07/29 04:01:02;;;;;;;5.50;2.15;;;;;;;;;;5072423;28;20027;-41
2021/07/29 04:03:27;;;;;;;2.92;1.75;;;;;;;;;;5072681;28;20509;-43
2021/07/29 04:05:52;;;;;;;7.07;2.75;;;;;;;;;;5055537;28;20024;-42
2021/07/29 04:08:18;;;;;;;2.40;1.92;;;;;;;;;;5052716;28;20021;-41
2021/07/29 04:10:43;;;;;;;9.00;2.28;;;;;;;;;;5052342;28;20419;-42
2021/07/29 04:13:08;;;;;;;5.03;2.20;;;;;;;;;;5052632;28;20017;-41
2021/07/29 04:15:34;;;;;;;2.83;2.30;;;;;;;;;;5052157;28;20032;-42
2021/07/29 04:17:59;;;;;;;4.95;2.33;;;;;;;;;;5052457;28;20017;-41
2021/07/29 04:20:25;;;;;;;4.93;2.30;;;;;;;;;;5052127;28;20124;-41
2021/07/29 04:22:50;;;;;;;6.68;2.38;;;;;;;;;;5052487;28;20104;-41
2021/07/29 04:25:15;;;;;;;7.57;2.30;;;;;;;;;;5052177;28;20025;-41
2021/07/29 04:27:41;;;;;;;2.47;2.22;;;;;;;;;;5052120;28;20040;-41
2021/07/29 04:30:06;;;;;;;4.50;1.98;;;;;;;;;;5052090;28;20029;-41
2021/07/29 04:32:35;;;;;;;5.80;2.47;;;;;;;;;;5052399;28;20017;-41
2021/07/29 04:35:01;;;;;;;3.70;1.90;;;;;;;;;;5051983;28;20037;-41
2021/07/29 04:37:27;;;;;;;5.05;2.33;;;;;;;;;;5051034;28;20013;-41
2021/07/29 04:39:52;;;;;;;2.80;2.08;;;;;;;;;;5055927;28;20159;-41
2021/07/29 04:42:17;;;;;;;3.45;2.30;;;;;;;;;;5056229;28;20025;-42
2021/07/29 04:44:43;;;;;;;3.38;2.75;;;;;;;;;;5055980;28;20115;-41
2021/07/29 04:47:09;;;;;;;3.33;2.35;;;;;;;;;;5056319;28;20024;-42
2021/07/29 04:49:34;;;;;;;2.88;2.17;;;;;;;;;;5056294;28;20530;-41
2021/07/29 04:52:00;;;;;;;2.30;2.00;;;;;;;;;;5055936;28;20059;-42
2021/07/29 04:54:25;;;;;;;4.75;2.58;;;;;;;;;;5055720;28;20123;-41
2021/07/29 04:56:50;;;;;;;4.65;2.08;;;;;;;;;;5056242;28;20029;-42
2021/07/29 04:59:16;;;;;;;3.72;2.08;;;;;;;;;;5054688;28;20123;-41
2021/07/29 05:01:42;;;;;;;4.43;2.55;;;;;;;;;;5054533;28;20071;-41
2021/07/29 05:04:07;;;;;;;8.02;2.78;;;;;;;;;;5055983;28;20039;-41
2021/07/29 05:06:35;;;;;;;2.95;1.65;;;;;;;;;;5055638;28;20013;-41
2021/07/29 05:09:01;;;;;;;3.33;2.13;;;;;;;;;;5056103;28;20052;-42
2021/07/29 05:11:26;;;;;;;3.03;2.13;;;;;;;;;;5055452;28;20419;-41
2021/07/29 05:13:53;;;;;;;3.45;2.03;;;;;;;;;;5055913;28;20116;-41
2021/07/29 05:16:18;;;;;;;2.53;1.98;;;;;;;;;;5055553;28;20013;-41
2021/07/29 05:18:44;;;;;;;7.20;2.10;;;;;;;;;;5055709;28;20537;-41
2021/07/29 05:21:09;;;;;;;4.70;2.25;;;;;;;;;;5055574;28;20480;-41
2021/07/29 05:23:35;;;;;;;2.63;2.38;;;;;;;;;;5055371;28;20017;-42
2021/07/29 05:26:00;;;;;;;3.45;2.17;;;;;;;;;;5055369;28;20066;-41
2021/07/29 05:28:26;;;;;;;4.22;2.50;;;;;;;;;;5055354;28;20048;-42
2021/07/29 05:30:51;;;;;;;5.15;2.15;;;;;;;;;;5054136;28;20047;-42
2021/07/29 05:33:17;;;;;;;3.05;1.90;;;;;;;;;;5055447;28;20112;-41
2021/07/29 05:35:42;;;;;;;6.47;2.78;;;;;;;;;;5055097;28;20467;-41
2021/07/29 05:38:07;;;;;;;4.95;2.13;;;;;;;;;;5055529;28;20021;-42
2021/07/29 05:40:34;;;;;;;3.80;2.30;;;;;;;;;;5055104;28;20411;-41
2021/07/29 05:43:00;;;;;;;4.47;2.28;;;;;;;;;;5055028;28;20411;-41
2021/07/29 05:45:27;;;;;;;3.20;2.05;;;;;;;;;;5070355;28;20032;-42
2021/07/29 05:47:53;;;;;;;5.97;2.58;;;;;;;;;;5055260;28;20021;-41
2021/07/29 05:50:18;;;;;;;3.10;2.55;;;;;;;;;;5054856;28;20375;-41
2021/07/29 05:52:44;;;;;;;6.72;2.17;;;;;;;;;;5054958;28;20077;-42
2021/07/29 05:55:09;;;;;;;4.57;2.72;;;;;;;;;;5054662;28;20033;-41
2021/07/29 05:57:35;;;;;;;3.22;1.95;;;;;;;;;;5055034;28;20025;-41
2021/07/29 06:00:00;;;;;;;4.60;2.05;;;;;;;;;;5054775;28;20028;-42
2021/07/29 06:02:26;;;;;;;2.58;1.67;;;;;;;;;;5054866;28;20021;-42
2021/07/29 06:04:51;;;;;;;8.73;2.60;;;;;;;;;;5054405;28;20020;-41
2021/07/29 06:07:18;;;;;;;4.90;2.25;;;;;;;;;;5054578;28;20044;-41
2021/07/29 06:09:43;;;;;;;3.15;2.28;;;;;;;;;;5054539;28;20009;-41
2021/07/29 06:12:09;;;;;;;2.80;2.03;;;;;;;;;;5054597;28;20051;-41
2021/07/29 06:14:34;;;;;;;2.72;2.28;;;;;;;;;;5054835;28;20055;-41
2021/07/29 06:16:59;;;;;;;3.03;2.65;;;;;;;;;;5054714;28;20494;-42
2021/07/29 06:19:34;;;;;;;4.43;2.83;;;;;;;;;;5054345;28;20025;-41
2021/07/29 06:22:00;;;;;;;9.10;2.45;;;;;;;;;;5054333;28;20555;-45
2021/07/29 06:24:26;;;;;;;5.18;2.67;;;;;;;;;;5054554;28;20056;-42
2021/07/29 06:26:52;;;;;;;4.47;2.53;;;;;;;;;;5054620;28;20021;-41
2021/07/29 06:29:18;;;;;;;4.72;2.13;;;;;;;;;;5054251;28;20025;-42
2021/07/29 06:31:43;;;;;;;4.25;2.33;;;;;;;;;;5069431;28;20099;-41
2021/07/29 06:34:08;;;;;;;5.63;2.28;;;;;;;;;;5052773;28;20120;-42
2021/07/29 06:36:34;;;;;;;2.10;1.70;;;;;;;;;;5053982;28;20498;-41
2021/07/29 06:38:59;;;;;;;4.38;2.17;;;;;;;;;;5054106;28;20017;-42
2021/07/29 06:41:25;;;;;;;5.47;2.92;;;;;;;;;;5054322;28;20025;-40
2021/07/29 06:43:50;;;;;;;6.90;2.25;;;;;;;;;;5053863;28;20021;-41
2021/07/29 06:46:16;;;;;;;5.60;2.83;;;;;;;;;;5053928;28;20110;-41
2021/07/29 06:48:41;;;;;;;2.55;1.98;;;;;;;;;;5054153;28;20095;-42
2021/07/29 06:51:08;;;;;;;3.03;2.13;;;;;;;;;;5053747;28;20028;-44
2021/07/29 06:53:35;;;;;;;3.78;2.17;;;;;;;;;;5053498;28;20395;-42
2021/07/29 06:56:01;;;;;;;10.18;1.95;;;;;;;;;;5053944;28;20033;-41
2021/07/29 06:58:26;;;;;;;2.35;2.13;;;;;;;;;;5053843;28;20379;-42
2021/07/29 07:00:52;;;;;;;6.60;2.05;;;;;;;;;;5053068;28;20391;-41
2021/07/29 07:03:18;;;;;;;4.10;2.38;;;;;;;;;;5052422;28;20020;-42
2021/07/29 07:05:46;;;;;;;7.20;2.33;;;;;;;;;;5053321;28;20033;-42
2021/07/29 07:08:12;;;;;;;3.67;1.65;;;;;;;;;;5053558;28;20036;-42
2021/07/29 07:10:38;;;;;;;5.45;2.45;;;;;;;;;;5053333;28;20479;-41
2021/07/29 07:13:03;;;;;;;8.00;2.22;;;;;;;;;;5053328;28;20017;-42
2021/07/29 07:15:29;;;;;;;4.82;2.47;;;;;;;;;;5053545;28;20025;-42
2021/07/29 07:17:55;;;;;;;4.30;2.50;;;;;;;;;;5053330;28;20025;-42
2021/07/29 07:20:20;;;;;;;2.30;2.10;;;;;;;;;;5053220;28;20131;-42
2021/07/29 07:22:45;;;;;;;3.58;2.33;;;;;;;;;;5053149;28;20040;-42
2021/07/29 07:25:11;;;;;;;3.00;2.17;;;;;;;;;;5068544;28;20033;-41
2021/07/29 07:27:36;;;;;;;6.22;2.25;;;;;;;;;;5053242;28;20028;-41
2021/07/29 07:30:02;;;;;;;4.13;2.20;;;;;;;;;;5053384;28;20464;-41
2021/07/29 07:32:28;;;;;;;2.28;1.98;;;;;;;;;;5053239;28;20025;-42
2021/07/29 07:34:53;;;;;;;2.92;2.08;;;;;;;;;;5052816;28;20043;-41
2021/07/29 07:37:19;;;;;;;2.75;2.25;;;;;;;;;;5053057;28;20540;-42
2021/07/29 07:39:45;;;;;;;3.42;2.08;;;;;;;;;;5052758;28;20048;-42
2021/07/29 07:42:10;;;;;;;3.10;2.28;;;;;;;;;;5052866;28;20021;-41
2021/07/29 07:44:36;;;;;;;5.72;2.53;;;;;;;;;;5051841;28;20105;-42
2021/07/29 07:47:01;;;;;;;6.18;2.78;;;;;;;;;;5053051;28;20479;-41
2021/07/29 07:49:27;;;;;;;5.20;2.20;;;;;;;;;;5052781;28;20104;-41
2021/07/29 07:51:52;;;;;;;9.63;2.38;;;;;;;;;;5053019;28;20104;-41
2021/07/29 07:54:18;;;;;;;5.10;2.10;;;;;;;;;;5067760;28;20056;-42
2021/07/29 07:56:43;;;;;;;4.20;2.58;;;;;;;;;;5052503;28;20430;-42
2021/07/29 07:59:09;;;;;;;4.75;2.75;;;;;;;;;;5051290;28;20127;-42
2021/07/29 08:01:37;;;;;;;2.50;1.83;;;;;;;;;;5052450;28;20488;-42
2021/07/29 08:04:02;;;;;;;4.68;2.25;;;;;;;;;;5052703;28;20036;-41
2021/07/29 08:06:28;;;;;;;7.43;2.20;;;;;;;;;;5051115;28;20017;-41
2021/07/29 08:08:53;;;;;;;2.95;2.55;;;;;;;;;;5052784;28;20377;-41
2021/07/29 08:11:18;;;;;;;6.25;3.08;;;;;;;;;;5052636;28;20341;-41
2021/07/29 08:13:44;;;;;;;6.13;2.30;;;;;;;;;;5051341;28;20392;-41
2021/07/29 08:16:09;;;;;;;2.70;2.05;;;;;;;;;;5052433;28;20009;-41
2021/07/29 08:18:35;;;;;;;9.35;2.10;;;;;;;;;;5052395;28;20025;-40
2021/07/29 08:21:00;;;;;;;7.85;2.50;;;;;;;;;;5052653;28;20025;-40
2021/07/29 08:23:28;;;;;;;2.70;1.85;;;;;;;;;;5052426;28;20416;-40
2021/07/29 08:25:53;;;;;;;4.85;2.35;;;;;;;;;;5052323;28;20374;-41
2021/07/29 08:28:18;;;;;;;4.97;2.47;;;;;;;;;;5052291;28;20063;-41
2021/07/29 08:30:44;;;;;;;4.78;2.13;;;;;;;;;;5052070;28;20081;-42
2021/07/29 08:33:10;;;;;;;5.95;2.38;;;;;;;;;;5052195;28;20032;-42
2021/07/29 08:35:36;;;;;;;8.88;2.28;;;;;;;;;;5052005;28;20029;-41
2021/07/29 08:38:02;;;;;;;7.93;2.78;;;;;;;;;;5052425;28;20033;-41
2021/07/29 08:40:27;;;;;;;7.35;2.67;;;;;;;;;;5052147;28;20021;-41
2021/07/29 08:42:52;;;;;;;4.88;2.38;;;;;;;;;;5052228;28;20027;-42
2021/07/29 08:45:18;;;;;;;6.68;2.33;;;;;;;;;;5052287;28;20017;-41
2021/07/29 08:47:44;;;;;;;7.22;2.88;;;;;;;;;;5052284;28;20041;-41
2021/07/29 08:50:10;;;;;;;4.22;2.22;;;;;;;;;;5052054;28;20021;-41
2021/07/29 08:52:35;;;;;;;5.05;2.53;;;;;;;;;;5051957;28;20052;-41
2021/07/29 08:55:01;;;;;;;4.20;1.80;;;;;;;;;;5051860;28;20397;-41
2021/07/29 08:57:28;;;;;;;4.53;2.17;;;;;;;;;;5052002;28;20021;-41
2021/07/29 08:59:54;;;;;;;3.47;2.28;;;;;;;;;;5051905;28;20025;-41
2021/07/29 09:02:23;;;;;;;2.63;2.13;;;;;;;;;;5052131;28;20029;-41
2021/07/29 09:05:15;;;;;;;6.50;2.28;;;;;;;;;;5051767;28;20029;-40
2021/07/29 09:07:41;;;;;;;6.72;3.15;;;;;;;;;;5050619;28;20039;-40
2021/07/29 09:10:26;;;;;;;4.30;2.63;;;;;;;;;;5052140;28;20025;-40
2021/07/29 09:13:08;;;;;;;3.47;1.95;;;;;;;;;;5051685;28;20069;-41
2021/07/29 09:15:33;;;;;;;4.60;2.23;;;;;;;;;;5050443;28;20438;-40
2021/07/29 09:17:59;;;;;;;4.63;2.05;;;;;;;;;;5050650;28;20051;-41
2021/07/29 09:20:24;;;;;;;6.55;1.85;;;;;;;;;;5051606;28;20033;-42
2021/07/29 09:22:52;;;;;;;3.92;2.30;;;;;;;;;;5051676;28;20024;-41
2021/07/29 09:25:19;;;;;;;4.75;2.35;;;;;;;;;;5054551;28;20028;-41
2021/07/29 09:27:46;;;;;;;8.80;2.92;;;;;;;;;;5055211;28;20029;-41
2021/07/29 09:30:25;;;;;;;2.90;2.08;;;;;;;;;;5055683;28;20082;-40
2021/07/29 09:33:04;;;;;;;4.93;1.92;;;;;;;;;;5055420;28;20065;-41
2021/07/29 09:35:32;;;;;;;7.90;2.70;;;;;;;;;;5055288;28;20043;-41
2021/07/29 09:37:58;;;;;;;4.45;2.60;;;;;;;;;;5055461;28;20099;-41
2021/07/29 09:40:24;;;;;;;4.43;2.17;;;;;;;;;;5055338;28;20033;-40
2021/07/29 09:43:10;;;;;;;3.83;2.47;;;;;;;;;;5053698;28;20017;-41
2021/07/29 09:45:36;;;;;;;5.20;2.40;;;;;;;;;;5054964;28;20024;-41
2021/07/29 09:48:02;;;;;;;6.93;2.92;;;;;;;;;;5055020;28;20372;-41
2021/07/29 09:50:28;;;;;;;9.45;3.40;;;;;;;;;;5054939;28;20464;-42
2021/07/29 09:52:54;;;;;;;6.32;2.65;;;;;;;;;;5054700;28;20163;-41
2021/07/29 09:55:20;;;;;;;5.63;2.38;;;;;;;;;;5055067;28;20044;-41
2021/07/29 09:57:46;;;;;;;4.25;3.05;;;;;;;;;;5054772;28;20468;-41
2021/07/29 10:00:12;;;;;;;4.82;2.63;;;;;;;;;;5054807;28;20025;-41
2021/07/29 10:02:37;;;;;;;4.05;3.15;;;;;;;;;;5054999;28;20020;-41
2021/07/29 10:05:03;;;;;;;6.85;3.03;;;;;;;;;;5054647;28;20474;-41
2021/07/29 10:07:29;;;;;;;4.97;3.17;;;;;;;;;;5054921;28;20071;-41
2021/07/29 10:09:55;;;;;;;5.82;3.08;;;;;;;;;;5070111;28;20460;-41
2021/07/29 10:12:23;;;;;;;5.55;3.28;;;;;;;;;;5054537;28;20049;-41
2021/07/29 10:14:49;;;;;;;8.15;3.38;;;;;;;;;;5054405;28;20041;-41
2021/07/29 10:17:14;;;;;;;6.25;3.22;;;;;;;;;;5054785;28;20024;-41
2021/07/29 10:20:16;;;;;;;2.53;2.00;;;;;;;;;;5054388;28;20029;-41
2021/07/29 10:22:42;;;;;;;4.45;2.95;;;;;;;;;;5031977;28;20037;-47
2021/07/29 10:25:08;;;;;;;4.40;2.95;;;;;;;;;;5049891;28;20439;-41
2021/07/29 10:27:33;;;;;;;8.88;3.78;;;;;;;;;;5054306;28;20137;-40
2021/07/29 10:30:17;;;;;;;9.05;3.45;;;;;;;;;;5054465;28;20021;-41
2021/07/29 10:32:44;;;;;;;5.90;3.08;;;;;;;;;;5054072;28;20041;-41
2021/07/29 10:35:25;;;;;;;9.80;3.53;;;;;;;;;;5052617;28;20036;-41
2021/07/29 10:37:53;;;;;;;9.25;3.47;;;;;;;;;;5053776;28;20111;-42
2021/07/29 10:40:31;;;;;;;12.30;3.75;;;;;;;;;;5054262;28;20013;-40
2021/07/29 10:42:56;;;;;;;7.03;3.17;;;;;;;;;;5054123;28;20025;-40
2021/07/29 10:45:42;;;;;;;6.43;3.17;;;;;;;;;;5052737;28;20028;-42
2021/07/29 10:48:27;;;;;;;6.75;3.42;;;;;;;;;;5053887;28;20040;-42
2021/07/29 10:51:11;;;;;;;4.68;3.40;;;;;;;;;;5053765;28;20021;-41
2021/07/29 10:53:40;;;;;;;5.03;3.05;;;;;;;;;;5053598;28;20048;-41
2021/07/29 10:56:06;;;;;;;3.25;2.72;;;;;;;;;;5052300;28;20025;-41
2021/07/29 10:58:42;;;;;;;11.35;3.47;;;;;;;;;;5053940;28;20036;-41
2021/07/29 11:01:10;;;;;;;10.68;3.75;;;;;;;;;;5053641;28;20032;-41
2021/07/29 11:03:37;;;;;;;7.47;3.10;;;;;;;;;;5053574;28;20021;-41
2021/07/29 11:06:05;;;;;;;5.60;2.78;;;;;;;;;;5053916;28;20025;-41
2021/07/29 11:08:31;;;;;;;5.15;2.88;;;;;;;;;;5053270;28;20017;-41
2021/07/29 11:10:57;;;;;;;7.28;2.95;;;;;;;;;;5052706;28;20017;-41
2021/07/29 11:13:22;;;;;;;6.80;2.50;;;;;;;;;;5053414;28;20021;-41
2021/07/29 11:15:48;;;;;;;5.30;2.75;;;;;;;;;;5053328;28;20060;-41
2021/07/29 11:18:17;;;;;;;6.75;2.50;;;;;;;;;;5053394;28;20017;-41
2021/07/29 11:20:42;;;;;;;7.45;2.60;;;;;;;;;;5051950;28;20074;-40
2021/07/29 11:23:13;;;;;;;3.97;2.83;;;;;;;;;;5052297;28;20021;-41
2021/07/29 11:25:58;;;;;;;3.58;2.53;;;;;;;;;;5051959;28;20483;-41
2021/07/29 11:28:24;;;;;;;4.80;2.85;;;;;;;;;;5052925;28;20468;-41
2021/07/29 11:30:49;;;;;;;4.97;2.15;;;;;;;;;;5050958;28;20020;-41
2021/07/29 11:33:18;;;;;;;5.32;2.53;;;;;;;;;;5053271;28;20060;-41
2021/07/29 11:35:44;;;;;;;5.75;2.33;;;;;;;;;;5053113;28;20021;-41
2021/07/29 11:38:14;;;;;;;3.85;3.20;;;;;;;;;;5053282;28;20095;-41
2021/07/29 11:40:40;;;;;;;7.05;3.75;;;;;;;;;;5052879;28;20033;-41
2021/07/29 11:43:19;;;;;;;4.40;2.70;;;;;;;;;;5052563;28;20489;-41
2021/07/29 11:45:44;;;;;;;3.28;2.58;;;;;;;;;;5052739;28;20032;-41
2021/07/29 11:48:23;;;;;;;4.78;2.67;;;;;;;;;;5052608;28;20021;-42
2021/07/29 11:50:49;;;;;;;3.38;2.42;;;;;;;;;;5068070;28;20029;-41
2021/07/29 11:53:14;;;;;;;7.70;2.40;;;;;;;;;;5051406;28;20139;-41
2021/07/29 11:55:40;;;;;;;11.30;3.45;;;;;;;;;;5052830;28;20132;-41
2021/07/29 11:58:06;;;;;;;4.10;2.63;;;;;;;;;;5052866;28;20482;-41
2021/07/29 12:00:33;;;;;;;5.40;3.00;;;;;;;;;;5052719;28;20037;-40
2021/07/29 12:03:00;;;;;;;5.40;3.03;;;;;;;;;;5052681;28;20092;-41
2021/07/29 12:05:25;;;;;;;4.55;3.00;;;;;;;;;;5052795;28;20061;-41
2021/07/29 12:07:53;;;;;;;8.65;3.70;;;;;;;;;;5052431;28;20484;-41
2021/07/29 12:10:19;;;;;;;3.65;2.70;;;;;;;;;;5052479;28;20486;-42
2021/07/29 12:12:45;;;;;;;7.35;3.42;;;;;;;;;;5052663;28;20072;-41
2021/07/29 12:15:13;;;;;;;5.30;3.15;;;;;;;;;;5052281;28;20041;-41
2021/07/29 12:17:38;;;;;;;9.02;3.25;;;;;;;;;;5051047;28;20017;-41
2021/07/29 12:20:07;;;;;;;7.43;2.83;;;;;;;;;;5052747;28;20372;-41
2021/07/29 12:22:37;;;;;;;3.97;2.35;;;;;;;;;;5052132;28;20013;-41
2021/07/29 12:25:05;;;;;;;5.50;2.78;;;;;;;;;;5052159;28;20533;-41
2021/07/29 12:27:43;;;;;;;8.75;4.60;;;;;;;;;;5052197;28;20025;-41
2021/07/29 12:30:29;;;;;;;4.32;2.80;;;;;;;;;;5052286;28;20027;-41
2021/07/29 12:33:07;;;;;;;9.60;2.58;;;;;;;;;;5048177;28;20041;-42
2021/07/29 12:35:32;;;;;;;5.75;2.47;;;;;;;;;;5051866;28;20037;-41
2021/07/29 12:37:58;;;;;;;5.25;2.85;;;;;;;;;;5052152;28;20023;-41
2021/07/29 12:40:25;;;;;;;6.65;2.80;;;;;;;;;;5052510;28;20060;-41
2021/07/29 12:42:50;;;;;;;3.65;2.50;;;;;;;;;;5052052;28;20017;-42
2021/07/29 12:45:16;;;;;;;5.03;3.28;;;;;;;;;;5052499;28;20433;-41
2021/07/29 12:48:02;;;;;;;4.75;3.17;;;;;;;;;;5050926;28;20478;-41
2021/07/29 12:50:37;;;;;;;8.55;3.42;;;;;;;;;;5051877;28;20032;-41
2021/07/29 12:53:16;;;;;;;12.35;3.95;;;;;;;;;;5051885;28;20484;-41
2021/07/29 12:55:42;;;;;;;6.10;2.92;;;;;;;;;;5051943;28;20063;-41
2021/07/29 12:58:08;;;;;;;4.43;2.67;;;;;;;;;;5052105;28;20371;-41
2021/07/29 13:00:36;;;;;;;6.65;2.78;;;;;;;;;;5055026;28;20119;-41
2021/07/29 13:03:01;;;;;;;3.72;3.25;;;;;;;;;;5056268;28;20052;-41
2021/07/29 13:05:27;;;;;;;5.70;3.33;;;;;;;;;;5071230;28;20470;-41
2021/07/29 13:07:53;;;;;;;5.95;3.38;;;;;;;;;;5055846;28;20023;-41
2021/07/29 13:10:19;;;;;;;4.57;3.05;;;;;;;;;;5055160;28;20029;-41
2021/07/29 13:12:46;;;;;;;9.25;3.90;;;;;;;;;;5055783;28;20040;-41
2021/07/29 13:15:13;;;;;;;3.45;2.72;;;;;;;;;;5055737;28;20037;-41
2021/07/29 13:17:38;;;;;;;5.07;2.88;;;;;;;;;;5055534;28;20453;-41
2021/07/29 13:20:04;;;;;;;5.00;3.17;;;;;;;;;;5056043;28;20033;-41
2021/07/29 13:22:29;;;;;;;5.00;2.72;;;;;;;;;;5055836;28;20154;-40
2021/07/29 13:24:55;;;;;;;8.45;3.20;;;;;;;;;;5055736;28;20028;-41
2021/07/29 13:27:24;;;;;;;6.10;2.88;;;;;;;;;;5055596;28;20604;-41
2021/07/29 13:29:49;;;;;;;6.55;3.22;;;;;;;;;;5055602;28;20029;-41
2021/07/29 13:32:14;;;;;;;10.05;3.20;;;;;;;;;;5055488;28;20017;-40
2021/07/29 13:34:40;;;;;;;6.68;2.60;;;;;;;;;;5055438;28;20387;-42
2021/07/29 13:37:05;;;;;;;5.35;2.50;;;;;;;;;;5055408;28;20017;-42
2021/07/29 13:39:31;;;;;;;5.40;2.80;;;;;;;;;;5055288;28;20044;-41
2021/07/29 13:41:56;;;;;;;6.30;2.80;;;;;;;;;;5055358;28;20044;-40
2021/07/29 13:44:22;;;;;;;7.13;3.58;;;;;;;;;;5055133;28;20036;-43
2021/07/29 13:46:48;;;;;;;3.35;2.80;;;;;;;;;;5055019;28;20017;-41
2021/07/29 13:49:14;;;;;;;12.80;3.28;;;;;;;;;;5055402;28;20124;-41
2021/07/29 13:51:39;;;;;;;9.20;3.50;;;;;;;;;;5055235;28;20376;-42
2021/07/29 13:54:05;;;;;;;4.35;2.92;;;;;;;;;;5054745;28;20471;-41
2021/07/29 13:56:30;;;;;;;7.00;3.25;;;;;;;;;;5055244;28;20505;-41
2021/07/29 13:58:56;;;;;;;5.47;2.50;;;;;;;;;;5054890;28;20045;-41
2021/07/29 14:01:25;;;;;;;7.78;3.75;;;;;;;;;;5055027;28;20025;-41
2021/07/29 14:03:51;;;;;;;6.18;3.45;;;;;;;;;;5054763;28;20064;-42
2021/07/29 14:06:18;;;;;;;8.35;3.15;;;;;;;;;;5054753;28;20402;-41
2021/07/29 14:08:45;;;;;;;6.53;3.20;;;;;;;;;;5054563;28;20025;-41
2021/07/29 14:11:10;;;;;;;9.77;3.15;;;;;;;;;;5054642;28;20062;-42
2021/07/29 14:13:36;;;;;;;5.18;2.83;;;;;;;;;;5054384;28;20437;-41
2021/07/29 14:16:01;;;;;;;6.70;3.03;;;;;;;;;;5054882;28;20021;-42
2021/07/29 14:18:27;;;;;;;4.47;3.60;;;;;;;;;;5053515;28;20036;-41
2021/07/29 14:23:29;;;;;;;7.10;3.88;;;;;;;;;;5054402;28;20035;-41
2021/07/29 14:25:55;;;;;;;4.68;3.13;;;;;;;;;;5054356;28;20017;-41
2021/07/29 14:28:21;;;;;;;7.55;4.10;;;;;;;;;;5054350;28;20387;-41
2021/07/29 14:30:47;;;;;;;7.10;3.53;;;;;;;;;;5054138;28;20021;-41
2021/07/29 14:33:12;;;;;;;8.13;3.45;;;;;;;;;;5054521;28;20036;-41
2021/07/29 14:35:40;;;;;;;4.78;3.50;;;;;;;;;;5053881;28;20689;-42
2021/07/29 14:38:06;;;;;;;9.18;3.55;;;;;;;;;;5054179;28;20032;-42
2021/07/29 14:40:32;;;;;;;6.78;2.90;;;;;;;;;;5054077;28;20029;-42
2021/07/29 14:42:58;;;;;;;5.90;3.10;;;;;;;;;;5053976;28;20036;-41
2021/07/29 14:45:43;;;;;;;5.38;2.55;;;;;;;;;;5054013;28;20183;-41